createdAt,value
2023-05-19T00:00:59.394Z,102113.56
2023-05-19T00:03:27.534Z,102113.25
2023-05-19T00:05:56.888Z,102124.69
2023-05-19T00:08:26.454Z,102124.94
2023-05-19T00:10:54.936Z,102125.91
2023-05-19T00:13:24.118Z,102131.72
2023-05-19T00:15:52.252Z,102127.22
2023-05-19T00:18:20.892Z,102120.19
2023-05-19T00:20:48.607Z,102129.50
2023-05-19T00:23:16.683Z,102119.84
2023-05-19T00:25:45.688Z,102118.44
2023-05-19T00:28:13.641Z,102125.47
2023-05-19T00:30:41.273Z,102121.31
2023-05-19T00:33:09.410Z,102120.72
2023-05-19T00:35:37.179Z,102117.88
2023-05-19T00:38:04.897Z,102116.19
2023-05-19T00:40:36.606Z,102113.78
2023-05-19T00:43:08.684Z,102116.91
2023-05-19T00:45:36.396Z,102113.72
2023-05-19T00:48:04.582Z,102113.72
2023-05-19T00:50:32.924Z,102119.56
2023-05-19T00:53:01.289Z,102114.28
2023-05-19T00:55:32.686Z,102119.78
2023-05-19T00:58:01.354Z,102119.31
2023-05-19T01:00:31.991Z,102119.56
2023-05-19T01:03:00.702Z,102111.22
2023-05-19T01:05:28.475Z,102116.81
2023-05-19T01:07:56.851Z,102120.16
2023-05-19T01:10:24.788Z,102118.50
2023-05-19T01:12:52.793Z,102111.94
2023-05-19T01:15:29.815Z,102116.84
2023-05-19T01:18:03.741Z,102116.94
2023-05-19T01:20:38.465Z,102114.19
2023-05-19T01:23:38.217Z,102107.66
2023-05-19T01:26:18.613Z,102102.06
2023-05-19T01:29:24.923Z,102096.91
2023-05-19T01:31:58.198Z,102099.03
2023-05-19T01:34:27.895Z,102103.44
2023-05-19T01:36:56.981Z,102106.91
2023-05-19T01:39:26.186Z,102114.16
2023-05-19T01:41:55.874Z,102115.56
2023-05-19T01:44:25.110Z,102116.53
2023-05-19T01:46:55.028Z,102119.97
2023-05-19T01:49:22.892Z,102116.88
2023-05-19T01:51:50.646Z,102108.66
2023-05-19T01:54:18.344Z,102116.03
2023-05-19T01:56:53.835Z,102110.81
2023-05-19T01:59:38.455Z,102115.56
2023-05-19T02:02:16.746Z,102108.53
2023-05-19T02:04:49.441Z,102108.53
2023-05-19T02:07:33.892Z,102112.94
2023-05-19T02:10:07.082Z,102108.38
2023-05-19T02:12:38.128Z,102121.63
2023-05-19T02:15:08.850Z,102111.72
2023-05-19T02:17:42.752Z,102110.91
2023-05-19T02:20:11.791Z,102121.13
2023-05-19T02:22:39.581Z,102121.34
2023-05-19T02:25:08.356Z,102112.16
2023-05-19T02:27:37.252Z,102116.16
2023-05-19T02:30:05.548Z,102114.72
2023-05-19T02:32:33.610Z,102114.66
2023-05-19T02:35:03.151Z,102107.97
2023-05-19T02:37:31.122Z,102110.84
2023-05-19T02:39:59.813Z,102110.00
2023-05-19T02:42:27.557Z,102102.31
2023-05-19T02:44:56.096Z,102100.75
2023-05-19T02:47:24.002Z,102103.88
2023-05-19T02:49:52.075Z,102097.59
2023-05-19T02:52:21.081Z,102105.53
2023-05-19T02:54:49.219Z,102102.50
2023-05-19T02:57:16.944Z,102099.75
2023-05-19T02:59:45.923Z,102095.69
2023-05-19T03:02:13.649Z,102106.41
2023-05-19T03:04:43.037Z,102096.53
2023-05-19T03:07:14.244Z,102091.06
2023-05-19T03:09:43.311Z,102098.31
2023-05-19T03:12:11.203Z,102094.38
2023-05-19T03:14:39.031Z,102094.00
2023-05-19T03:17:08.652Z,102094.84
2023-05-19T03:19:36.417Z,102092.56
2023-05-19T03:22:04.830Z,102092.91
2023-05-19T03:24:32.643Z,102097.78
2023-05-19T03:27:02.838Z,102096.56
2023-05-19T03:29:30.970Z,102096.31
2023-05-19T03:32:00.122Z,102102.44
2023-05-19T03:34:28.006Z,102096.72
2023-05-19T03:36:56.104Z,102101.50
2023-05-19T03:39:23.774Z,102100.41
2023-05-19T03:41:51.723Z,102100.53
2023-05-19T03:44:21.003Z,102090.44
2023-05-19T03:46:48.692Z,102097.47
2023-05-19T03:49:16.431Z,102092.84
2023-05-19T03:51:44.577Z,102094.13
2023-05-19T03:54:12.240Z,102090.31
2023-05-19T03:56:41.234Z,102093.78
2023-05-19T03:59:10.859Z,102090.78
2023-05-19T04:01:39.886Z,102105.31
2023-05-19T04:04:07.975Z,102095.34
2023-05-19T04:06:36.558Z,102091.66
2023-05-19T04:09:11.875Z,102095.81
2023-05-19T04:11:40.566Z,102093.66
2023-05-19T04:14:08.960Z,102099.16
2023-05-19T04:16:37.097Z,102104.03
2023-05-19T04:19:06.572Z,102098.09
2023-05-19T04:21:34.676Z,102094.41
2023-05-19T04:24:02.872Z,102096.09
2023-05-19T04:26:34.353Z,102094.41
2023-05-19T04:29:04.420Z,102091.44
2023-05-19T04:31:34.308Z,102095.00
2023-05-19T04:34:03.129Z,102099.31
2023-05-19T04:36:33.942Z,102098.56
2023-05-19T04:39:06.575Z,102096.00
2023-05-19T04:41:34.775Z,102101.81
2023-05-19T04:44:02.814Z,102097.78
2023-05-19T04:46:30.616Z,102101.56
2023-05-19T04:49:01.471Z,102109.69
2023-05-19T04:51:31.250Z,102096.09
2023-05-19T04:54:00.798Z,102101.56
2023-05-19T04:56:28.876Z,102105.72
2023-05-19T04:58:56.985Z,102111.09
2023-05-19T05:01:26.135Z,102107.28
2023-05-19T05:03:55.586Z,102106.56
2023-05-19T05:06:23.362Z,102109.69
2023-05-19T05:08:51.590Z,102106.19
2023-05-19T05:11:21.366Z,102102.03
2023-05-19T05:13:49.960Z,102106.06
2023-05-19T05:16:18.252Z,102102.84
2023-05-19T05:18:47.320Z,102105.47
2023-05-19T05:21:15.607Z,102105.34
2023-05-19T05:23:44.533Z,102111.78
2023-05-19T05:26:19.895Z,102111.38
2023-05-19T05:28:48.908Z,102110.41
2023-05-19T05:31:17.217Z,102112.91
2023-05-19T05:33:45.196Z,102107.53
2023-05-19T05:36:14.102Z,102115.97
2023-05-19T05:38:41.851Z,102112.25
2023-05-19T05:41:09.503Z,102112.84
2023-05-19T05:43:37.493Z,102110.78
2023-05-19T05:46:06.659Z,102111.22
2023-05-19T05:48:35.431Z,102114.56
2023-05-19T05:51:03.630Z,102105.34
2023-05-19T05:53:32.461Z,102115.94
2023-05-19T05:56:00.765Z,102114.38
2023-05-19T05:58:29.543Z,102120.53
2023-05-19T06:00:58.601Z,102121.97
2023-05-19T06:03:28.325Z,102114.16
2023-05-19T06:05:56.460Z,102122.81
2023-05-19T06:08:24.251Z,102116.56
2023-05-19T06:10:52.296Z,102116.41
2023-05-19T06:13:23.898Z,102112.66
2023-05-19T06:15:53.135Z,102109.75
2023-05-19T06:18:20.878Z,102110.16
2023-05-19T06:20:51.063Z,102110.78
2023-05-19T06:23:18.774Z,102110.63
2023-05-19T06:25:47.131Z,102115.09
2023-05-19T06:28:14.844Z,102108.94
2023-05-19T06:30:42.567Z,102105.69
2023-05-19T06:33:10.272Z,102108.50
2023-05-19T06:35:38.286Z,102109.16
2023-05-19T06:38:07.704Z,102104.03
2023-05-19T06:40:36.021Z,102106.34
2023-05-19T06:43:05.111Z,102109.81
2023-05-19T06:45:32.988Z,102112.66
2023-05-19T06:48:01.339Z,102113.53
2023-05-19T06:50:29.192Z,102115.03
2023-05-19T06:52:57.577Z,102115.41
2023-05-19T06:55:26.925Z,102115.13
2023-05-19T06:57:54.834Z,102110.47
2023-05-19T07:00:24.011Z,102110.00
2023-05-19T07:02:52.568Z,102114.44
2023-05-19T07:05:21.614Z,102122.84
2023-05-19T07:07:50.093Z,102121.53
2023-05-19T07:10:17.913Z,102131.22
2023-05-19T07:12:47.528Z,102124.69
2023-05-19T07:15:15.361Z,102123.41
2023-05-19T07:17:43.464Z,102117.06
2023-05-19T07:20:12.090Z,102119.38
2023-05-19T07:22:40.131Z,102121.88
2023-05-19T07:25:09.699Z,102120.13
2023-05-19T07:27:37.660Z,102124.81
2023-05-19T07:30:08.741Z,102127.66
2023-05-19T07:32:36.514Z,102125.44
2023-05-19T07:35:04.884Z,102124.06
2023-05-19T07:37:32.587Z,102124.44
2023-05-19T07:40:01.102Z,102123.34
2023-05-19T07:42:28.808Z,102119.78
2023-05-19T07:44:56.495Z,102113.50
2023-05-19T07:47:26.052Z,102110.84
2023-05-19T07:49:53.736Z,102122.22
2023-05-19T07:52:21.922Z,102109.84
2023-05-19T07:54:49.685Z,102119.84
2023-05-19T07:57:19.197Z,102112.66
2023-05-19T07:59:47.010Z,102109.38
2023-05-19T08:02:14.957Z,102117.41
2023-05-19T08:04:44.216Z,102112.97
2023-05-19T08:07:12.205Z,102117.44
2023-05-19T08:09:39.922Z,102111.38
2023-05-19T08:12:07.885Z,102121.59
2023-05-19T08:14:35.662Z,102115.81
2023-05-19T08:17:04.066Z,102121.91
2023-05-19T08:19:31.880Z,102118.88
2023-05-19T08:22:02.110Z,102118.00
2023-05-19T08:24:30.547Z,102127.69
2023-05-19T08:26:58.251Z,102132.38
2023-05-19T08:29:26.357Z,102129.56
2023-05-19T08:31:54.539Z,102128.44
2023-05-19T08:34:22.290Z,102125.91
2023-05-19T08:36:50.395Z,102136.97
2023-05-19T08:39:24.164Z,102134.13
2023-05-19T08:41:52.214Z,102139.88
2023-05-19T08:44:20.116Z,102142.63
2023-05-19T08:46:48.824Z,102140.34
2023-05-19T08:49:25.475Z,102125.06
2023-05-19T08:52:01.355Z,102136.28
2023-05-19T08:54:39.983Z,102126.56
2023-05-19T08:57:10.265Z,102121.19
2023-05-19T08:59:38.632Z,102110.00
2023-05-19T09:02:07.183Z,102118.03
2023-05-19T09:04:35.634Z,102128.81
2023-05-19T09:07:03.922Z,102110.44
2023-05-19T09:09:33.742Z,102112.84
2023-05-19T09:12:01.484Z,102108.19
2023-05-19T09:14:29.962Z,102110.59
2023-05-19T09:16:57.722Z,102097.91
2023-05-19T09:19:30.397Z,102103.91
2023-05-19T09:22:03.204Z,102099.34
2023-05-19T09:24:32.042Z,102108.91
2023-05-19T09:27:02.492Z,102110.19
2023-05-19T09:29:30.413Z,102104.19
2023-05-19T09:32:00.741Z,102109.91
2023-05-19T09:34:29.136Z,102101.75
2023-05-19T09:36:58.009Z,102090.38
2023-05-19T09:39:26.493Z,102093.53
2023-05-19T09:41:55.096Z,102092.13
2023-05-19T09:44:29.380Z,102096.50
2023-05-19T09:46:58.149Z,102082.34
2023-05-19T09:49:30.064Z,102091.69
2023-05-19T09:51:58.583Z,102075.50
2023-05-19T09:54:29.449Z,102076.03
2023-05-19T09:57:01.544Z,102083.38
2023-05-19T09:59:33.552Z,102082.16
2023-05-19T10:02:03.726Z,102077.34
2023-05-19T10:04:32.382Z,102086.06
2023-05-19T10:07:00.969Z,102073.59
2023-05-19T10:09:30.266Z,102075.63
2023-05-19T10:11:59.168Z,102069.38
2023-05-19T10:14:28.478Z,102059.94
2023-05-19T10:16:59.476Z,102062.72
2023-05-19T10:19:28.796Z,102070.75
2023-05-19T10:21:57.247Z,102069.56
2023-05-19T10:24:25.498Z,102059.16
2023-05-19T10:26:58.482Z,102066.97
2023-05-19T10:29:31.511Z,102069.84
2023-05-19T10:32:05.868Z,102075.19
2023-05-19T10:35:09.107Z,102058.66
2023-05-19T10:37:45.146Z,102071.50
2023-05-19T10:40:21.112Z,102065.19
2023-05-19T10:42:58.532Z,102057.09
2023-05-19T10:45:31.898Z,102065.25
2023-05-19T10:48:01.475Z,102067.22
2023-05-19T10:50:36.966Z,102064.22
2023-05-19T10:53:05.047Z,102050.03
2023-05-19T10:55:53.017Z,102057.22
2023-05-19T10:58:39.351Z,102057.00
2023-05-19T11:01:11.014Z,102052.66
2023-05-19T11:03:58.277Z,102056.09
2023-05-19T11:06:28.224Z,102045.03
2023-05-19T11:08:59.082Z,102041.25
2023-05-19T11:11:26.898Z,102041.78
2023-05-19T11:13:56.272Z,102048.81
2023-05-19T11:16:33.598Z,102053.22
2023-05-19T11:19:03.172Z,102043.88
2023-05-19T11:21:43.990Z,102037.19
2023-05-19T11:24:11.918Z,102040.06
2023-05-19T11:26:44.440Z,102042.53
2023-05-19T11:29:12.683Z,102043.28
2023-05-19T11:31:41.719Z,102031.72
2023-05-19T11:34:11.356Z,102033.66
2023-05-19T11:36:40.750Z,102038.31
2023-05-19T11:39:10.513Z,102024.91
2023-05-19T11:41:40.822Z,102033.72
2023-05-19T11:44:12.044Z,102032.78
2023-05-19T11:46:39.930Z,102029.44
2023-05-19T11:49:08.910Z,102025.56
2023-05-19T11:51:38.317Z,102027.75
2023-05-19T11:54:06.491Z,102024.28
2023-05-19T11:56:35.524Z,102026.88
2023-05-19T11:59:03.571Z,102017.06
2023-05-19T12:01:31.915Z,102038.22
2023-05-19T12:04:00.718Z,102019.00
2023-05-19T12:06:28.917Z,102032.84
2023-05-19T12:08:59.436Z,102025.03
2023-05-19T12:11:29.017Z,102022.16
2023-05-19T12:14:00.114Z,102033.28
2023-05-19T12:16:34.493Z,102017.50
2023-05-19T12:19:02.785Z,102020.63
2023-05-19T12:21:34.351Z,102025.09
2023-05-19T12:26:50.781Z,102038.59
2023-05-19T12:29:18.750Z,102025.84
2023-05-19T12:31:48.169Z,102021.97
2023-05-19T12:34:17.127Z,102014.47
2023-05-19T12:36:44.935Z,102012.75
2023-05-19T12:39:14.564Z,102019.25
2023-05-19T12:41:45.976Z,102016.38
2023-05-19T12:44:18.501Z,102011.72
2023-05-19T12:46:46.627Z,101996.91
2023-05-19T12:49:15.171Z,102011.28
2023-05-19T12:51:42.805Z,102006.53
2023-05-19T12:54:10.641Z,102009.31
2023-05-19T12:56:40.328Z,102009.91
2023-05-19T12:59:08.043Z,101996.69
2023-05-19T13:01:37.759Z,102002.63
2023-05-19T13:04:06.837Z,101989.78
2023-05-19T13:06:34.662Z,101998.13
2023-05-19T13:09:02.326Z,101999.97
2023-05-19T13:11:30.419Z,102007.41
2023-05-19T13:13:59.541Z,101994.13
2023-05-19T13:16:28.929Z,101992.16
2023-05-19T13:18:57.082Z,101995.34
2023-05-19T13:21:24.906Z,101987.53
2023-05-19T13:23:53.325Z,102001.78
2023-05-19T13:26:22.393Z,102003.56
2023-05-19T13:28:50.166Z,102005.75
2023-05-19T13:31:19.982Z,101996.78
2023-05-19T13:33:48.161Z,101994.94
2023-05-19T13:36:15.870Z,101998.66
2023-05-19T13:38:44.149Z,101995.09
2023-05-19T13:41:13.702Z,101988.91
2023-05-19T13:43:41.554Z,101991.19
2023-05-19T13:46:09.648Z,101996.41
2023-05-19T13:48:38.705Z,101992.31
2023-05-19T13:51:06.424Z,101990.84
2023-05-19T13:53:35.180Z,101980.88
2023-05-19T13:56:03.767Z,101982.50
2023-05-19T13:58:31.546Z,101984.38
2023-05-19T14:01:00.546Z,101983.34
2023-05-19T14:03:28.388Z,101992.19
2023-05-19T14:05:57.528Z,101988.38
2023-05-19T14:08:26.400Z,101993.59
2023-05-19T14:10:56.098Z,101983.69
2023-05-19T14:15:54.880Z,101984.69
2023-05-19T14:18:22.896Z,101984.97
2023-05-19T14:20:50.610Z,101984.38
2023-05-19T14:23:21.870Z,101988.28
2023-05-19T14:25:49.587Z,101978.28
2023-05-19T14:28:17.703Z,101975.22
2023-05-19T14:30:45.987Z,101986.75
2023-05-19T14:33:13.799Z,101982.44
2023-05-19T14:35:41.792Z,101982.94
2023-05-19T14:38:09.729Z,101988.72
2023-05-19T14:40:41.530Z,101994.69
2023-05-19T14:43:09.278Z,101994.34
2023-05-19T14:45:37.339Z,101982.94
2023-05-19T14:48:05.678Z,101994.25
2023-05-19T14:50:33.559Z,102000.38
2023-05-19T14:53:01.626Z,101997.25
2023-05-19T14:55:29.389Z,101999.44
2023-05-19T14:57:58.861Z,101985.41
2023-05-19T15:00:26.929Z,101998.53
2023-05-19T15:02:54.925Z,102002.25
2023-05-19T15:05:24.060Z,101996.97
2023-05-19T15:07:52.485Z,102000.19
2023-05-19T15:10:20.985Z,101999.81
2023-05-19T15:12:48.999Z,102002.66
2023-05-19T15:15:18.595Z,101992.38
2023-05-19T15:17:47.901Z,101991.06
2023-05-19T15:20:15.685Z,101991.19
2023-05-19T15:22:43.386Z,101986.69
2023-05-19T15:25:12.736Z,101987.34
2023-05-19T15:27:40.634Z,101988.28
2023-05-19T15:30:09.657Z,102008.47
2023-05-19T15:32:39.122Z,102001.63
2023-05-19T15:35:07.846Z,101999.34
2023-05-19T15:37:35.531Z,101993.22
2023-05-19T15:40:03.964Z,101992.41
2023-05-19T15:42:31.685Z,101983.03
2023-05-19T15:44:59.413Z,101983.84
2023-05-19T15:47:27.137Z,101983.03
2023-05-19T15:49:56.191Z,101983.94
2023-05-19T15:52:23.865Z,101975.69
2023-05-19T15:54:51.883Z,101979.22
2023-05-19T15:57:19.565Z,101980.22
2023-05-19T15:59:47.259Z,101993.50
2023-05-19T16:02:16.354Z,101991.69
2023-05-19T16:04:44.153Z,101977.66
2023-05-19T16:07:13.550Z,101978.56
2023-05-19T16:09:41.181Z,101990.47
2023-05-19T16:12:09.071Z,101987.69
2023-05-19T16:14:38.104Z,101977.72
2023-05-19T16:17:11.238Z,101980.38
2023-05-19T16:19:39.360Z,101978.94
2023-05-19T16:22:07.274Z,101974.88
2023-05-19T16:24:36.678Z,101975.19
2023-05-19T16:27:04.917Z,101969.91
2023-05-19T16:29:33.090Z,101966.94
2023-05-19T16:32:00.917Z,101966.09
2023-05-19T16:34:30.571Z,101975.25
2023-05-19T16:36:58.492Z,101968.34
2023-05-19T16:39:26.696Z,101973.13
2023-05-19T16:41:55.751Z,101975.63
2023-05-19T16:44:24.548Z,101973.44
2023-05-19T16:46:52.312Z,101963.22
2023-05-19T16:49:20.307Z,101964.97
2023-05-19T16:51:48.986Z,101965.47
2023-05-19T16:54:16.882Z,101972.91
2023-05-19T16:56:44.767Z,101980.13
2023-05-19T16:59:13.861Z,101972.91
2023-05-19T17:01:42.071Z,101966.28
2023-05-19T17:04:10.596Z,101964.44
2023-05-19T17:06:39.374Z,101961.94
2023-05-19T17:09:07.129Z,101958.19
2023-05-19T17:11:35.366Z,101962.28
2023-05-19T17:14:07.532Z,101963.50
2023-05-19T17:16:37.240Z,101957.94
2023-05-19T17:19:05.569Z,101958.72
2023-05-19T17:21:34.046Z,101960.38
2023-05-19T17:24:01.942Z,101964.78
2023-05-19T17:26:30.930Z,101967.84
2023-05-19T17:28:58.656Z,101968.69
2023-05-19T17:31:26.757Z,101981.13
2023-05-19T17:33:55.823Z,101967.16
2023-05-19T17:36:23.926Z,101970.59
2023-05-19T17:38:51.632Z,101972.59
2023-05-19T17:41:19.773Z,101984.00
2023-05-19T17:43:47.570Z,101983.50
2023-05-19T17:46:16.501Z,101979.94
2023-05-19T17:48:44.617Z,101983.28
2023-05-19T17:51:14.079Z,101991.06
2023-05-19T17:53:42.870Z,101999.69
2023-05-19T17:56:12.978Z,101995.22
2023-05-19T17:58:41.532Z,101996.91
2023-05-19T18:01:10.346Z,101995.88
2023-05-19T18:03:38.776Z,101986.75
2023-05-19T18:06:09.436Z,101987.28
2023-05-19T18:08:39.634Z,101988.81
2023-05-19T18:11:08.034Z,101984.13
2023-05-19T18:13:37.485Z,101984.44
2023-05-19T18:16:05.429Z,101991.09
2023-05-19T18:18:35.023Z,101978.63
2023-05-19T18:21:02.796Z,101982.59
2023-05-19T18:23:31.178Z,101987.91
2023-05-19T18:26:00.409Z,101987.91
2023-05-19T18:28:30.012Z,101994.59
2023-05-19T18:31:01.137Z,101986.59
2023-05-19T18:33:31.050Z,102002.09
2023-05-19T18:35:59.895Z,101990.19
2023-05-19T18:38:27.946Z,101998.22
2023-05-19T18:40:57.899Z,101999.91
2023-05-19T18:43:29.999Z,101993.84
2023-05-19T18:45:58.233Z,102002.50
2023-05-19T18:48:26.875Z,102007.53
2023-05-19T18:50:54.922Z,102004.22
2023-05-19T18:53:23.039Z,101999.25
2023-05-19T18:55:51.232Z,102002.34
2023-05-19T18:58:19.543Z,101998.22
2023-05-19T19:00:48.695Z,101996.63
2023-05-19T19:03:16.711Z,102007.13
2023-05-19T19:05:44.973Z,101997.78
2023-05-19T19:08:13.148Z,102008.00
2023-05-19T19:10:40.878Z,101998.88
2023-05-19T19:13:08.626Z,102002.19
2023-05-19T19:15:36.417Z,101999.16
2023-05-19T19:18:08.048Z,101999.19
2023-05-19T19:20:36.054Z,101999.50
2023-05-19T19:23:06.735Z,101997.34
2023-05-19T19:25:34.649Z,102000.13
2023-05-19T19:28:02.424Z,101991.81
2023-05-19T19:30:30.910Z,101987.97
2023-05-19T19:32:59.684Z,101999.09
2023-05-19T19:35:29.141Z,102001.31
2023-05-19T19:37:58.683Z,102000.50
2023-05-19T19:40:26.437Z,101996.94
2023-05-19T19:42:54.278Z,101998.06
2023-05-19T19:45:22.037Z,102002.22
2023-05-19T19:47:50.155Z,101996.16
2023-05-19T19:50:17.946Z,101997.56
2023-05-19T19:52:47.273Z,101993.94
2023-05-19T19:55:14.972Z,101990.38
2023-05-19T19:57:45.214Z,101985.66
2023-05-19T20:00:14.110Z,101990.34
2023-05-19T20:03:02.176Z,101994.22
2023-05-19T20:05:29.872Z,101999.75
2023-05-19T20:07:59.329Z,101998.66
2023-05-19T20:10:27.539Z,101998.94
2023-05-19T20:12:55.271Z,102001.13
2023-05-19T20:15:23.599Z,101999.19
2023-05-19T20:17:51.398Z,101996.44
2023-05-19T20:20:19.510Z,101995.34
2023-05-19T20:22:47.228Z,101992.28
2023-05-19T20:25:16.473Z,101993.41
2023-05-19T20:27:44.206Z,102001.38
2023-05-19T20:30:12.572Z,102003.59
2023-05-19T20:32:40.703Z,102004.41
2023-05-19T20:35:09.085Z,102008.81
2023-05-19T20:37:37.187Z,102008.28
2023-05-19T20:40:05.834Z,102019.00
2023-05-19T20:42:35.469Z,102018.47
2023-05-19T20:45:03.642Z,102020.97
2023-05-19T20:47:32.538Z,102019.84
2023-05-19T20:50:00.383Z,102019.25
2023-05-19T20:52:28.400Z,102019.00
2023-05-19T20:54:56.078Z,102020.09
2023-05-19T20:57:23.915Z,102018.97
2023-05-19T20:59:53.002Z,102023.38
2023-05-19T21:02:21.158Z,102021.41
2023-05-19T21:04:49.680Z,102018.09
2023-05-19T21:07:18.009Z,102017.53
2023-05-19T21:09:46.548Z,102012.81
2023-05-19T21:12:16.397Z,102015.28
2023-05-19T21:14:44.361Z,102011.41
2023-05-19T21:17:13.498Z,102006.16
2023-05-19T21:19:41.919Z,102010.50
2023-05-19T21:22:09.622Z,102018.47
2023-05-19T21:24:37.642Z,102011.28
2023-05-19T21:27:05.873Z,102024.47
2023-05-19T21:29:33.839Z,102022.56
2023-05-19T21:32:01.527Z,102019.78
2023-05-19T21:34:30.958Z,102027.22
2023-05-19T21:36:58.675Z,102026.88
2023-05-19T21:39:26.791Z,102028.00
2023-05-19T21:41:54.474Z,102024.09
2023-05-19T21:44:24.048Z,102024.41
2023-05-19T21:46:51.860Z,102027.66
2023-05-19T21:49:20.365Z,102029.59
2023-05-19T21:51:49.447Z,102028.19
2023-05-19T21:54:17.390Z,102032.56
2023-05-19T21:56:45.403Z,102033.66
2023-05-19T21:59:13.360Z,102040.50
2023-05-19T22:01:42.240Z,102031.66
2023-05-19T22:04:10.676Z,102037.19
2023-05-19T22:06:38.425Z,102040.47
2023-05-19T22:09:08.487Z,102037.41
2023-05-19T22:11:36.270Z,102042.34
2023-05-19T22:14:04.369Z,102031.88
2023-05-19T22:16:33.323Z,102029.13
2023-05-19T22:19:01.176Z,102038.22
2023-05-19T22:21:29.207Z,102035.19
2023-05-19T22:23:56.930Z,102028.81
2023-05-19T22:26:26.037Z,102025.47
2023-05-19T22:28:53.865Z,102022.47
2023-05-19T22:31:21.851Z,102026.88
2023-05-19T22:33:50.010Z,102039.53
2023-05-19T22:36:17.807Z,102034.00
2023-05-19T22:38:45.801Z,102034.25
2023-05-19T22:41:13.493Z,102030.16
2023-05-19T22:43:43.168Z,102035.94
2023-05-19T22:46:10.876Z,102044.19
2023-05-19T22:48:38.632Z,102040.63
2023-05-19T22:51:06.820Z,102040.66
2023-05-19T22:53:34.917Z,102041.75
2023-05-19T22:56:02.574Z,102034.00
2023-05-19T22:58:30.652Z,102048.31
2023-05-19T23:00:59.739Z,102051.59
2023-05-19T23:03:27.458Z,102054.56
2023-05-19T23:05:55.682Z,102054.78
2023-05-19T23:08:23.357Z,102052.22
2023-05-19T23:10:51.406Z,102045.38
2023-05-19T23:13:21.403Z,102045.06
2023-05-19T23:15:49.940Z,102045.06
2023-05-19T23:18:19.398Z,102042.06
2023-05-19T23:20:47.042Z,102045.06
2023-05-19T23:23:14.742Z,102043.41
2023-05-19T23:25:42.767Z,102039.50
2023-05-19T23:28:10.914Z,102037.56
2023-05-19T23:30:39.735Z,102038.66
2023-05-19T23:33:07.484Z,102040.59
2023-05-19T23:35:37.057Z,102035.31
2023-05-19T23:38:04.780Z,102038.00
2023-05-19T23:40:32.853Z,102030.56
2023-05-19T23:43:00.567Z,102032.69
2023-05-19T23:45:28.751Z,102034.66
2023-05-19T23:47:56.541Z,102034.66
2023-05-19T23:50:25.255Z,102032.38
2023-05-19T23:52:54.349Z,102023.31
2023-05-19T23:55:23.750Z,102032.38
2023-05-19T23:57:51.461Z,102029.88
